Time;durP1;ratioP1;P1;durP2;ratioP2;P2;SDS_P1;SDS_P2;PMS_P1;PMS_P2;Temp;Humidity;BMP_temperature;BMP_pressure;BME280_temperature;BME280_humidity;BME280_pressure;Samples;Min_cycle;Max_cycle;Signal;HPM_P1;HPM_P2
2021/09/02 00:02:25;;;;;;;17.55;14.23;;;;;;;15.36;82.57;99901.22;1821468;78;20896;-73
2021/09/02 00:04:52;;;;;;;19.55;15.13;;;;;;;15.33;82.73;99895.73;1821431;78;21037;-71
2021/09/02 00:07:21;;;;;;;20.00;16.32;;;;;;;15.31;82.81;99891.91;1821359;78;20927;-71
2021/09/02 00:09:48;;;;;;;25.12;16.27;;;;;;;15.29;82.80;99894.34;1821464;78;21502;-72
2021/09/02 00:12:16;;;;;;;24.07;16.25;;;;;;;15.27;82.75;99893.19;1821351;78;20969;-72
2021/09/02 00:14:43;;;;;;;22.22;15.85;;;;;;;15.24;82.73;99893.94;1821324;78;20927;-71
2021/09/02 00:17:10;;;;;;;18.27;14.70;;;;;;;15.22;82.72;99899.36;1821680;78;20876;-73
2021/09/02 00:19:37;;;;;;;17.60;14.78;;;;;;;15.20;82.73;99902.62;1821481;78;20872;-71
2021/09/02 00:22:04;;;;;;;19.90;15.35;;;;;;;15.17;82.57;99905.55;1821740;78;21463;-72
2021/09/02 00:24:31;;;;;;;20.12;14.68;;;;;;;15.11;82.31;99908.25;1821309;78;20903;-74
2021/09/02 00:26:58;;;;;;;20.20;16.37;;;;;;;15.11;82.31;99908.25;1821594;78;20860;-71
2021/09/02 00:29:25;;;;;;;25.15;16.42;;;;;;;15.05;82.20;99904.86;1821393;78;21005;-71
2021/09/02 00:31:52;;;;;;;19.52;14.73;;;;;;;14.96;82.18;99906.98;1821652;78;20990;-71
2021/09/02 00:34:19;;;;;;;17.15;14.25;;;;;;;14.96;82.18;99906.98;1821421;78;21125;-71
2021/09/02 00:36:45;;;;;;;18.92;13.90;;;;;;;14.92;82.25;99906.94;1821830;78;20902;-71
2021/09/02 00:39:13;;;;;;;18.62;14.03;;;;;;;14.84;82.87;99894.41;1821354;78;21059;-71
2021/09/02 00:41:39;;;;;;;21.25;15.28;;;;;;;14.84;82.87;99894.41;1821698;78;20868;-71
2021/09/02 00:44:08;;;;;;;18.25;14.63;;;;;;;14.80;83.01;99878.98;1821536;78;20943;-71
2021/09/02 00:46:35;;;;;;;20.60;15.80;;;;;;;14.80;83.01;99878.98;1821406;78;21120;-73
2021/09/02 00:49:03;;;;;;;17.82;13.50;;;;;;;14.80;83.08;99879.81;1822252;78;21504;-72
2021/09/02 00:51:30;;;;;;;20.02;14.05;;;;;;;14.79;82.93;99879.97;1825209;78;21306;-72
2021/09/02 00:53:57;;;;;;;17.07;14.20;;;;;;;14.75;82.86;99875.94;1824771;78;20927;-72
2021/09/02 00:56:26;;;;;;;16.75;14.00;;;;;;;14.71;82.86;99871.41;1824832;78;20962;-71
2021/09/02 00:58:53;;;;;;;16.40;12.45;;;;;;;14.67;82.94;99870.86;1824918;78;21178;-72
2021/09/02 01:01:21;;;;;;;14.65;11.05;;;;;;;14.63;82.99;99870.78;1824818;78;20839;-72
2021/09/02 01:03:48;;;;;;;14.10;10.82;;;;;;;14.60;83.15;99867.57;1824913;78;20911;-71
2021/09/02 01:06:17;;;;;;;14.53;9.30;;;;;;;14.57;83.19;99873.13;1824863;78;20911;-72
2021/09/02 01:08:45;;;;;;;11.57;9.48;;;;;;;14.51;83.17;99867.38;1824876;78;21469;-72
2021/09/02 01:11:13;;;;;;;12.45;8.83;;;;;;;14.51;83.40;99877.10;1824796;78;21689;-72
2021/09/02 01:13:39;;;;;;;9.88;8.80;;;;;;;14.53;83.62;99875.66;1825104;78;20867;-72
2021/09/02 01:16:06;;;;;;;14.25;9.93;;;;;;;14.54;83.79;99872.03;1824822;78;20925;-71
2021/09/02 01:18:33;;;;;;;10.08;8.08;;;;;;;14.56;83.59;99872.77;1824944;78;20931;-71
2021/09/02 01:21:00;;;;;;;10.90;9.00;;;;;;;14.56;83.66;99870.95;1824936;78;20848;-71
2021/09/02 01:23:27;;;;;;;14.40;8.98;;;;;;;14.59;83.71;99868.06;1825067;78;22236;-71
2021/09/02 01:25:53;;;;;;;12.18;9.45;;;;;;;14.59;83.42;99867.23;1824733;78;20880;-71
2021/09/02 01:28:21;;;;;;;9.78;7.83;;;;;;;14.62;83.72;99867.78;1824695;78;20983;-71
2021/09/02 01:30:48;;;;;;;11.57;8.65;;;;;;;14.63;83.99;99859.37;1824846;78;20951;-73
2021/09/02 01:33:17;;;;;;;10.23;8.85;;;;;;;14.67;84.04;99858.13;1824769;78;21344;-72
2021/09/02 01:35:44;;;;;;;13.93;9.08;;;;;;;14.73;84.00;99858.08;1824742;78;21104;-72
2021/09/02 01:38:11;;;;;;;13.25;9.20;;;;;;;14.73;84.00;99858.08;1825143;78;20950;-73
2021/09/02 01:40:43;;;;;;;12.45;8.73;;;;;;;14.71;83.65;99856.39;1824785;78;21338;-72
2021/09/02 01:43:12;;;;;;;10.55;8.75;;;;;;;14.70;83.40;99860.02;1825041;78;20888;-72
2021/09/02 01:45:39;;;;;;;13.68;9.58;;;;;;;14.69;83.08;99864.11;1824926;78;20919;-73
2021/09/02 01:48:06;;;;;;;12.50;9.28;;;;;;;14.67;82.98;99858.13;1825174;78;21479;-72
2021/09/02 01:50:35;;;;;;;10.30;8.93;;;;;;;14.64;83.07;99855.77;1821788;78;20928;-71
2021/09/02 01:53:06;;;;;;;17.12;9.73;;;;;;;14.64;83.17;99863.20;1821587;78;20966;-71
2021/09/02 01:55:35;;;;;;;10.30;9.20;;;;;;;14.64;83.27;99853.14;1821446;78;20924;-72
2021/09/02 01:58:02;;;;;;;9.70;8.60;;;;;;;14.63;83.62;99848.35;1821364;78;20963;-72
2021/09/02 02:00:29;;;;;;;11.33;9.10;;;;;;;14.62;83.23;99851.12;1821302;78;21460;-72
2021/09/02 02:02:56;;;;;;;12.28;9.23;;;;;;;14.60;83.28;99843.82;1821548;78;20907;-72
2021/09/02 02:05:23;;;;;;;11.10;9.40;;;;;;;14.54;82.61;99853.56;1821421;78;20868;-72
2021/09/02 02:07:51;;;;;;;12.47;9.30;;;;;;;14.54;82.61;99853.56;1821306;78;20919;-70
2021/09/02 02:10:22;;;;;;;13.13;10.05;;;;;;;14.51;83.00;99846.76;1821254;78;21006;-72
2021/09/02 02:12:49;;;;;;;10.82;8.35;;;;;;;14.48;83.13;99846.55;1821714;78;21089;-73
2021/09/02 02:15:17;;;;;;;12.98;10.93;;;;;;;14.47;83.48;99844.90;1821153;78;20876;-73
2021/09/02 02:17:44;;;;;;;10.08;9.15;;;;;;;14.47;83.40;99838.77;1821363;78;20888;-73
2021/09/02 02:20:13;;;;;;;10.98;9.25;;;;;;;14.44;83.40;99842.52;1821295;78;21452;-73
2021/09/02 02:22:41;;;;;;;10.50;9.50;;;;;;;14.44;83.59;99836.41;1821286;78;20918;-72
2021/09/02 02:25:11;;;;;;;11.22;9.55;;;;;;;14.46;83.67;99836.62;1821286;78;21267;-71
2021/09/02 02:27:38;;;;;;;14.63;9.68;;;;;;;14.46;83.82;99839.26;1821548;78;20915;-72
2021/09/02 02:30:07;;;;;;;12.15;9.48;;;;;;;14.46;83.98;99844.53;1821247;78;22120;-72
2021/09/02 02:32:34;;;;;;;10.95;9.85;;;;;;;14.45;83.95;99843.34;1821526;78;20919;-73
2021/09/02 02:35:02;;;;;;;10.95;9.83;;;;;;;14.47;83.94;99855.45;1821425;78;21013;-71
2021/09/02 02:37:29;;;;;;;11.25;10.18;;;;;;;14.49;83.93;99853.98;1821801;78;21765;-71
2021/09/02 02:39:56;;;;;;;13.13;10.48;;;;;;;14.50;84.12;99843.79;1821367;78;20836;-71
2021/09/02 02:42:23;;;;;;;14.38;11.08;;;;;;;14.49;84.22;99833.70;1821499;78;20880;-71
2021/09/02 02:44:51;;;;;;;11.53;10.32;;;;;;;14.54;84.37;99836.41;1821660;78;21356;-71
2021/09/02 02:47:18;;;;;;;14.30;11.78;;;;;;;14.54;84.42;99834.63;1821741;78;20832;-71
2021/09/02 02:49:44;;;;;;;15.28;11.43;;;;;;;14.59;84.36;99840.84;1821373;78;21492;-71
2021/09/02 02:52:11;;;;;;;14.05;11.55;;;;;;;14.58;84.11;99843.13;1821473;78;20954;-72
2021/09/02 02:54:38;;;;;;;16.65;11.73;;;;;;;14.58;84.07;99849.72;1821809;78;21476;-71
2021/09/02 02:57:05;;;;;;;18.45;12.93;;;;;;;14.57;84.11;99852.85;1821344;78;20994;-72
2021/09/02 02:59:33;;;;;;;14.50;11.33;;;;;;;14.56;84.18;99847.70;1821394;78;20939;-73
2021/09/02 03:02:00;;;;;;;11.30;10.13;;;;;;;14.56;84.41;99841.10;1821474;78;21542;-72
2021/09/02 03:04:26;;;;;;;16.23;10.98;;;;;;;14.55;84.39;99835.00;1821730;78;20973;-73
2021/09/02 03:06:53;;;;;;;12.78;10.55;;;;;;;14.58;84.45;99839.16;1821503;78;20923;-72
2021/09/02 03:09:21;;;;;;;14.28;10.23;;;;;;;14.58;84.45;99839.16;1821256;78;20863;-71
2021/09/02 03:11:47;;;;;;;14.65;11.22;;;;;;;14.59;84.30;99839.03;1821490;78;20922;-72
2021/09/02 03:14:16;;;;;;;14.43;12.85;;;;;;;14.60;84.49;99841.19;1821501;78;21466;-72
2021/09/02 03:16:44;;;;;;;13.50;10.85;;;;;;;14.63;84.61;99844.39;1818686;78;20955;-72
2021/09/02 03:19:11;;;;;;;14.75;10.80;;;;;;;14.64;84.54;99847.36;1814578;79;21346;-72
2021/09/02 03:21:41;;;;;;;13.45;11.08;;;;;;;14.65;84.63;99851.69;1814650;79;20881;-74
2021/09/02 03:24:08;;;;;;;11.40;10.13;;;;;;;14.67;84.77;99855.48;1814620;79;20919;-72
2021/09/02 03:26:35;;;;;;;12.88;11.60;;;;;;;14.68;84.84;99862.45;1814957;79;21092;-73
2021/09/02 03:29:02;;;;;;;14.43;10.75;;;;;;;14.67;84.92;99858.13;1814336;79;21568;-72
2021/09/02 03:31:29;;;;;;;14.15;10.63;;;;;;;14.69;84.75;99857.02;1814860;79;20872;-73
2021/09/02 03:33:56;;;;;;;12.60;11.40;;;;;;;14.71;84.81;99856.89;1814458;79;20929;-73
2021/09/02 03:36:23;;;;;;;12.80;10.68;;;;;;;14.74;84.69;99856.63;1814836;79;21412;-72
2021/09/02 03:38:50;;;;;;;14.70;10.43;;;;;;;14.75;84.66;99846.91;1814852;79;21146;-71
2021/09/02 03:41:17;;;;;;;19.92;11.55;;;;;;;14.77;84.65;99843.64;1814935;79;21413;-71
2021/09/02 03:43:43;;;;;;;12.63;11.30;;;;;;;14.80;84.67;99843.35;1814514;79;20963;-73
2021/09/02 03:46:10;;;;;;;22.05;13.13;;;;;;;14.83;84.49;99847.02;1814795;79;20872;-71
2021/09/02 03:48:38;;;;;;;16.42;11.45;;;;;;;14.88;84.77;99852.74;1814565;78;20868;-72
2021/09/02 03:51:06;;;;;;;15.35;11.38;;;;;;;14.88;84.77;99852.74;1814633;78;21723;-73
2021/09/02 03:53:33;;;;;;;15.93;11.25;;;;;;;14.88;84.31;99851.42;1814490;78;20911;-73
2021/09/02 03:55:59;;;;;;;17.05;11.30;;;;;;;14.91;84.22;99855.09;1814715;79;20927;-71
2021/09/02 03:58:26;;;;;;;13.85;11.10;;;;;;;14.93;84.49;99854.47;1814491;79;21460;-72
2021/09/02 04:00:54;;;;;;;12.98;11.10;;;;;;;14.95;84.27;99858.30;1814557;79;20910;-72
2021/09/02 04:03:20;;;;;;;14.15;10.88;;;;;;;14.98;84.43;99854.05;1814419;79;21107;-72
2021/09/02 04:05:48;;;;;;;19.17;11.12;;;;;;;15.03;84.69;99854.00;1814392;79;20852;-72
2021/09/02 04:08:15;;;;;;;13.05;10.63;;;;;;;15.10;84.72;99852.45;1814591;79;20908;-71
2021/09/02 04:10:42;;;;;;;14.60;11.43;;;;;;;15.16;84.71;99847.08;1814614;79;20987;-71
2021/09/02 04:13:09;;;;;;;14.45;11.57;;;;;;;15.21;84.66;99844.88;1814469;79;20880;-71
2021/09/02 04:15:36;;;;;;;12.37;11.03;;;;;;;15.26;84.94;99841.31;1814423;79;21125;-72
2021/09/02 04:18:03;;;;;;;12.88;11.12;;;;;;;15.36;84.89;99843.09;1814703;79;20967;-72
2021/09/02 04:20:30;;;;;;;16.12;10.72;;;;;;;15.46;84.98;99832.86;1814808;79;20837;-73
2021/09/02 04:22:57;;;;;;;12.78;10.05;;;;;;;15.57;84.84;99833.19;1814392;78;20928;-79
2021/09/02 04:25:24;;;;;;;12.00;10.50;;;;;;;15.68;84.57;99833.50;1814352;78;20942;-79
2021/09/02 04:27:51;;;;;;;10.98;9.88;;;;;;;15.77;84.18;99832.66;1814985;79;21088;-78
2021/09/02 04:30:18;;;;;;;12.33;10.88;;;;;;;15.88;84.02;99835.62;1814535;78;20858;-78
2021/09/02 04:32:46;;;;;;;13.90;10.03;;;;;;;15.99;83.76;99829.31;1814597;79;21006;-77
2021/09/02 04:35:13;;;;;;;13.78;9.63;;;;;;;16.15;83.19;99825.03;1814503;79;20936;-78
2021/09/02 04:37:43;;;;;;;11.95;10.85;;;;;;;16.15;83.19;99825.03;1814401;79;20852;-78
2021/09/02 04:40:10;;;;;;;13.58;10.40;;;;;;;16.25;82.85;99835.58;1815268;79;21775;-77
2021/09/02 04:42:37;;;;;;;11.85;8.90;;;;;;;16.35;82.73;99836.34;1814418;79;20912;-78
2021/09/02 04:45:06;;;;;;;13.50;10.45;;;;;;;16.47;82.62;99831.66;1814372;78;21009;-78
2021/09/02 04:47:33;;;;;;;10.28;9.28;;;;;;;16.60;82.29;99833.95;1814533;78;21461;-78
2021/09/02 04:49:59;;;;;;;9.38;8.43;;;;;;;16.75;81.87;99828.97;1814075;78;20991;-74
2021/09/02 04:52:26;;;;;;;10.05;9.05;;;;;;;16.85;81.42;99828.44;1806949;79;21096;-76
2021/09/02 04:54:54;;;;;;;15.48;8.98;;;;;;;16.94;81.11;99816.07;1806877;78;20971;-77
2021/09/02 04:57:21;;;;;;;10.58;8.70;;;;;;;17.01;80.82;99814.50;1807029;79;20920;-77
2021/09/02 04:59:48;;;;;;;12.47;8.80;;;;;;;17.09;80.54;99818.52;1807220;78;21442;-73
2021/09/02 05:02:15;;;;;;;11.15;8.55;;;;;;;17.15;80.29;99814.43;1806912;79;20924;-71
2021/09/02 05:04:42;;;;;;;10.23;9.20;;;;;;;17.23;80.18;99814.97;1807233;79;21098;-72
2021/09/02 05:07:09;;;;;;;9.68;8.43;;;;;;;17.32;79.88;99811.38;1806251;79;20908;-71
2021/09/02 05:09:36;;;;;;;10.48;8.45;;;;;;;17.41;79.71;99801.20;1806154;78;20952;-72
2021/09/02 05:12:03;;;;;;;11.97;8.28;;;;;;;17.49;79.49;99795.92;1806591;79;20998;-72
2021/09/02 05:14:30;;;;;;;13.40;8.90;;;;;;;17.59;79.18;99799.31;1807192;79;20908;-72
2021/09/02 05:16:58;;;;;;;10.20;8.38;;;;;;;17.70;79.04;99792.91;1806828;79;20883;-71
2021/09/02 05:19:25;;;;;;;14.05;8.80;;;;;;;17.81;78.59;99786.02;1807247;79;20872;-71
2021/09/02 05:21:52;;;;;;;10.40;7.87;;;;;;;17.90;78.15;99784.73;1807333;79;20943;-72
2021/09/02 05:24:19;;;;;;;14.83;7.97;;;;;;;17.95;77.86;99780.59;1806950;79;20893;-72
2021/09/02 05:26:46;;;;;;;11.45;7.78;;;;;;;18.00;77.70;99776.13;1807022;79;21037;-73
2021/09/02 05:29:13;;;;;;;9.00;7.47;;;;;;;18.08;77.56;99774.84;1807229;79;22105;-73
2021/09/02 05:31:41;;;;;;;9.55;7.47;;;;;;;18.15;77.36;99766.56;1807012;79;20982;-73
2021/09/02 05:34:08;;;;;;;9.28;7.90;;;;;;;18.23;77.30;99768.42;1807078;79;21397;-72
2021/09/02 05:36:35;;;;;;;12.98;7.60;;;;;;;18.34;76.87;99768.58;1806815;79;20920;-72
2021/09/02 05:39:03;;;;;;;8.63;7.72;;;;;;;18.44;76.30;99775.41;1807251;78;20908;-73
2021/09/02 05:41:30;;;;;;;8.03;7.17;;;;;;;18.55;76.14;99774.77;1807417;78;21114;-72
2021/09/02 05:43:57;;;;;;;7.95;7.15;;;;;;;18.64;75.87;99778.58;1807151;79;20829;-72
2021/09/02 05:46:24;;;;;;;7.50;6.80;;;;;;;18.73;75.39;99789.22;1807052;79;20920;-75
2021/09/02 05:48:51;;;;;;;8.75;6.78;;;;;;;18.77;74.87;99792.73;1807276;79;21382;-72
2021/09/02 05:51:18;;;;;;;10.25;6.87;;;;;;;18.82;74.71;99792.24;1810690;79;20923;-72
2021/09/02 05:53:45;;;;;;;6.45;5.95;;;;;;;18.87;74.56;99793.89;1814104;79;21449;-73
2021/09/02 05:56:12;;;;;;;8.03;6.85;;;;;;;18.91;74.21;99788.58;1814360;79;20971;-73
2021/09/02 05:58:40;;;;;;;9.90;6.83;;;;;;;18.95;74.18;99789.91;1814425;79;20880;-72
2021/09/02 06:01:07;;;;;;;11.22;7.28;;;;;;;19.01;73.89;99785.27;1814308;78;20920;-72
2021/09/02 06:03:34;;;;;;;7.40;6.70;;;;;;;19.04;73.79;99782.27;1814446;79;20900;-72
2021/09/02 06:06:01;;;;;;;9.40;7.65;;;;;;;19.08;73.75;99782.77;1814418;78;21124;-72
2021/09/02 06:08:28;;;;;;;6.85;6.20;;;;;;;19.13;73.66;99788.91;1814559;79;21544;-70
2021/09/02 06:10:55;;;;;;;7.25;6.55;;;;;;;19.17;73.56;99780.94;1814556;79;21410;-76
2021/09/02 06:13:22;;;;;;;7.83;6.17;;;;;;;19.21;73.22;99789.73;1814800;79;20994;-70
2021/09/02 06:15:49;;;;;;;7.28;6.50;;;;;;;19.26;73.06;99783.40;1814680;79;20888;-71
2021/09/02 06:18:16;;;;;;;9.73;5.92;;;;;;;19.30;72.98;99782.58;1814559;79;21088;-71
2021/09/02 06:20:44;;;;;;;8.90;6.35;;;;;;;19.33;72.66;99784.88;1814548;78;20911;-74
2021/09/02 06:23:11;;;;;;;8.48;6.65;;;;;;;19.35;72.35;99779.41;1814631;79;20888;-74
2021/09/02 06:25:37;;;;;;;6.45;5.85;;;;;;;19.35;72.41;99785.55;1814591;79;21302;-76
2021/09/02 06:28:05;;;;;;;7.00;5.65;;;;;;;19.35;72.33;99785.55;1814663;79;20975;-76
2021/09/02 06:30:32;;;;;;;7.25;6.55;;;;;;;19.35;72.33;99784.22;1814875;79;21043;-78
2021/09/02 06:32:59;;;;;;;8.25;5.87;;;;;;;19.34;72.33;99785.23;1814751;79;20849;-77
2021/09/02 06:35:27;;;;;;;6.75;6.05;;;;;;;19.32;71.93;99785.05;1814556;78;20927;-76
2021/09/02 06:37:54;;;;;;;7.60;5.62;;;;;;;19.33;71.86;99790.70;1814857;79;20948;-77
2021/09/02 06:40:20;;;;;;;11.12;6.72;;;;;;;19.32;71.86;99791.22;1814668;79;20908;-76
2021/09/02 06:42:49;;;;;;;6.40;5.30;;;;;;;19.33;71.88;99794.70;1814598;79;21358;-77
2021/09/02 06:45:17;;;;;;;6.22;5.65;;;;;;;19.32;71.92;99794.34;1814504;79;20888;-78
2021/09/02 06:47:45;;;;;;;6.75;6.10;;;;;;;19.31;71.70;99798.02;1814923;78;21413;-78
2021/09/02 06:50:12;;;;;;;7.72;6.17;;;;;;;19.30;71.55;99797.67;1814523;79;20888;-76
2021/09/02 06:52:40;;;;;;;6.00;5.47;;;;;;;19.28;71.68;99799.70;1814508;78;20888;-77
2021/09/02 06:55:09;;;;;;;6.05;5.55;;;;;;;19.25;71.94;99796.38;1814533;79;21801;-77
2021/09/02 06:57:36;;;;;;;5.90;5.42;;;;;;;19.24;71.88;99791.22;1814915;79;21386;-79
2021/09/02 07:00:05;;;;;;;6.67;5.62;;;;;;;19.24;71.72;99789.89;1814574;79;20995;-79
2021/09/02 07:02:32;;;;;;;7.10;6.40;;;;;;;19.21;71.54;99797.70;1814468;78;20951;-78
2021/09/02 07:04:58;;;;;;;8.40;7.62;;;;;;;19.22;71.54;99804.67;1814532;79;20908;-74
2021/09/02 07:07:25;;;;;;;7.20;6.50;;;;;;;19.22;71.48;99799.86;1814934;79;21778;-77
2021/09/02 07:09:52;;;;;;;6.92;6.28;;;;;;;19.22;71.47;99809.98;1814518;79;20923;-77
2021/09/02 07:12:19;;;;;;;8.30;6.85;;;;;;;19.22;71.29;99801.19;1814547;79;21362;-75
2021/09/02 07:14:46;;;;;;;10.55;6.78;;;;;;;19.22;71.37;99808.66;1814423;79;20880;-75
2021/09/02 07:17:13;;;;;;;9.43;6.35;;;;;;;19.24;71.55;99810.65;1814909;79;20853;-76
2021/09/02 07:19:40;;;;;;;7.53;6.83;;;;;;;19.25;71.48;99811.00;1814584;79;21082;-76
2021/09/02 07:22:09;;;;;;;8.18;7.28;;;;;;;19.28;71.47;99806.34;1814468;79;21490;-76
2021/09/02 07:24:36;;;;;;;8.50;7.70;;;;;;;19.31;71.25;99802.83;1814583;79;20916;-76
2021/09/02 07:27:04;;;;;;;11.43;8.35;;;;;;;19.35;71.14;99809.48;1814971;79;20951;-77
2021/09/02 07:29:32;;;;;;;7.33;6.62;;;;;;;19.42;71.16;99802.98;1814409;79;20880;-77
2021/09/02 07:31:59;;;;;;;6.92;6.33;;;;;;;19.47;70.85;99804.63;1814532;79;21124;-78
2021/09/02 07:34:26;;;;;;;13.05;6.55;;;;;;;19.52;70.81;99798.31;1814382;79;20962;-77
2021/09/02 07:36:54;;;;;;;7.83;6.72;;;;;;;19.60;70.70;99796.94;1815109;78;20960;-77
2021/09/02 07:39:21;;;;;;;10.53;7.00;;;;;;;19.70;70.50;99800.79;1814281;78;21007;-78
2021/09/02 07:41:48;;;;;;;8.30;6.55;;;;;;;19.79;70.18;99794.94;1814703;78;20844;-78
2021/09/02 07:44:15;;;;;;;7.83;6.67;;;;;;;19.86;69.79;99800.72;1814466;79;21144;-77
2021/09/02 07:46:42;;;;;;;6.97;6.28;;;;;;;19.94;69.67;99799.02;1814466;79;20931;-77
2021/09/02 07:49:09;;;;;;;6.47;5.97;;;;;;;19.99;69.54;99796.17;1814713;78;20931;-77
2021/09/02 07:51:36;;;;;;;6.30;5.70;;;;;;;20.04;69.63;99801.80;1814406;79;20927;-78
2021/09/02 07:54:03;;;;;;;8.63;6.70;;;;;;;20.08;69.36;99800.97;1814447;79;21437;-75
2021/09/02 07:56:30;;;;;;;5.12;4.62;;;;;;;20.12;69.11;99792.11;1814402;79;21153;-77
2021/09/02 07:58:57;;;;;;;4.67;4.28;;;;;;;20.13;68.50;99801.26;1814446;79;20876;-75
2021/09/02 08:01:24;;;;;;;4.55;4.15;;;;;;;20.13;67.83;99795.94;1814534;78;20935;-76
2021/09/02 08:03:52;;;;;;;5.90;4.42;;;;;;;20.17;67.96;99798.58;1814361;79;21053;-75
2021/09/02 08:06:18;;;;;;;4.85;4.40;;;;;;;20.20;67.83;99799.55;1814392;79;20869;-75
2021/09/02 08:08:46;;;;;;;4.87;4.25;;;;;;;20.23;67.07;99794.38;1814716;78;21885;-74
2021/09/02 08:11:14;;;;;;;6.90;4.72;;;;;;;20.25;66.69;99800.36;1814316;79;20943;-75
2021/09/02 08:13:41;;;;;;;5.80;3.95;;;;;;;20.29;66.41;99795.02;1814440;79;20927;-74
2021/09/02 08:16:08;;;;;;;4.33;3.90;;;;;;;20.32;66.24;99789.36;1814328;79;20940;-75
2021/09/02 08:18:36;;;;;;;5.58;3.85;;;;;;;20.38;65.98;99795.80;1814535;79;20880;-74
2021/09/02 08:21:03;;;;;;;4.12;3.72;;;;;;;20.40;65.56;99794.61;1814470;79;21146;-76
2021/09/02 08:23:30;;;;;;;4.53;3.80;;;;;;;20.42;64.75;99790.45;1814644;78;20877;-76
2021/09/02 08:25:57;;;;;;;4.28;3.85;;;;;;;20.42;64.85;99796.59;1814490;78;20931;-75
2021/09/02 08:28:24;;;;;;;3.22;3.02;;;;;;;20.43;64.85;99795.61;1814421;79;20920;-75
2021/09/02 08:30:51;;;;;;;4.12;3.33;;;;;;;20.42;64.30;99797.11;1814406;79;20896;-77
2021/09/02 08:33:19;;;;;;;3.55;3.25;;;;;;;20.43;63.98;99794.76;1814543;79;21117;-76
2021/09/02 08:35:46;;;;;;;3.12;2.85;;;;;;;20.46;64.05;99794.42;1814545;79;21401;-75
2021/09/02 08:38:13;;;;;;;3.40;3.10;;;;;;;20.48;63.90;99797.23;1814485;79;20935;-74
2021/09/02 08:40:41;;;;;;;3.42;3.08;;;;;;;20.53;63.80;99791.38;1814430;79;20880;-77
2021/09/02 08:43:08;;;;;;;2.70;2.50;;;;;;;20.58;63.53;99796.20;1814385;78;21330;-82
2021/09/02 08:45:36;;;;;;;2.83;2.62;;;;;;;20.61;63.22;99790.02;1814395;78;21535;-82
2021/09/02 08:48:04;;;;;;;3.02;2.47;;;;;;;20.67;62.66;99783.96;1814426;78;20939;-81
2021/09/02 08:50:34;;;;;;;4.67;2.98;;;;;;;20.72;62.52;99790.12;1814307;78;20931;-80
2021/09/02 08:53:01;;;;;;;2.83;2.50;;;;;;;20.78;62.82;99784.56;1819354;78;20926;-80
2021/09/02 08:55:28;;;;;;;2.87;2.50;;;;;;;20.84;62.78;99775.34;1820554;78;20829;-80
2021/09/02 08:57:55;;;;;;;3.40;2.33;;;;;;;20.89;62.40;99771.63;1820409;78;21533;-80
2021/09/02 09:00:23;;;;;;;5.17;3.50;;;;;;;20.95;62.63;99766.09;1820454;78;20888;-80
2021/09/02 09:03:01;;;;;;;3.65;2.72;;;;;;;21.01;62.24;99768.05;1820382;78;20864;-80
2021/09/02 09:05:35;;;;;;;3.25;2.67;;;;;;;21.10;62.45;99762.13;1820522;78;20877;-79
2021/09/02 09:08:10;;;;;;;3.45;3.10;;;;;;;21.16;62.50;99764.05;1821058;78;20908;-80
2021/09/02 09:10:39;;;;;;;2.95;2.75;;;;;;;21.21;62.71;99758.17;1820551;78;21130;-79
2021/09/02 09:13:10;;;;;;;5.87;3.33;;;;;;;21.26;62.81;99757.13;1820586;78;21032;-79
2021/09/02 09:15:41;;;;;;;3.98;3.55;;;;;;;21.28;62.60;99763.12;1820664;78;21030;-79
2021/09/02 09:18:21;;;;;;;4.25;3.80;;;;;;;21.34;62.68;99763.70;1820779;78;20889;-78
2021/09/02 09:21:07;;;;;;;4.47;3.98;;;;;;;21.43;62.97;99757.80;1820398;78;20828;-77
2021/09/02 09:24:02;;;;;;;5.42;4.22;;;;;;;21.51;63.25;99767.88;1820515;78;20955;-77
2021/09/02 09:26:32;;;;;;;4.85;4.45;;;;;;;21.54;63.35;99760.00;1820531;78;20872;-78
2021/09/02 09:29:02;;;;;;;6.90;6.15;;;;;;;21.52;63.73;99762.03;1820571;78;20923;-77
2021/09/02 09:31:34;;;;;;;5.62;5.10;;;;;;;21.49;64.12;99760.56;1786920;78;20895;-79
2021/09/02 09:34:06;;;;;;;6.15;5.60;;;;;;;21.44;64.14;99762.96;1820822;78;20868;-76
2021/09/02 09:36:36;;;;;;;7.72;7.03;;;;;;;21.33;64.28;99766.88;1820645;78;21708;-74
2021/09/02 09:39:07;;;;;;;8.10;6.90;;;;;;;21.24;64.67;99771.16;1820639;78;20986;-77
2021/09/02 09:41:45;;;;;;;8.13;6.78;;;;;;;21.13;64.50;99769.76;1820710;78;20868;-76
2021/09/02 09:44:27;;;;;;;7.67;6.97;;;;;;;21.04;65.12;99770.34;1820741;78;20951;-77
2021/09/02 09:47:10;;;;;;;10.05;7.55;;;;;;;21.04;65.60;99771.67;1820470;78;20915;-78
2021/09/02 09:49:52;;;;;;;7.83;7.10;;;;;;;21.09;65.89;99779.13;1821003;78;21103;-77
2021/09/02 09:52:37;;;;;;;9.25;7.72;;;;;;;21.15;66.94;99778.41;1817871;78;20864;-76
2021/09/02 09:55:06;;;;;;;;;;;;;;;21.10;67.75;99774.13;1817189;79;21504;-75
2021/09/02 09:57:34;;;;;;;8.83;7.90;;;;;;;20.98;68.36;99768.39;1814490;79;20129;-77
2021/09/02 10:00:15;;;;;;;8.35;7.55;;;;;;;20.85;68.59;99781.02;1814286;79;20940;-77
2021/09/02 10:02:44;;;;;;;12.40;8.55;;;;;;;20.72;68.83;99778.60;1814365;79;21129;-79
2021/09/02 10:06:35;;;;;;;10.32;9.30;;;;;;;20.53;69.69;99777.23;1798899;79;22749;-77
2021/09/02 10:09:03;;;;;;;11.33;7.35;;;;;;;20.37;69.82;99781.66;1758549;80;20912;-76
2021/09/02 10:11:29;;;;;;;7.78;7.08;;;;;;;20.26;69.51;99784.73;1758317;80;21125;-79
2021/09/02 10:13:56;;;;;;;9.38;7.75;;;;;;;20.17;69.85;99783.94;1758359;81;20908;-78
2021/09/02 10:16:23;;;;;;;9.53;8.48;;;;;;;20.08;70.06;99784.99;1758197;81;21346;-75
2021/09/02 10:18:52;;;;;;;10.60;8.60;;;;;;;20.00;70.35;99791.17;1758172;80;20936;-78
2021/09/02 10:21:20;;;;;;;8.13;7.42;;;;;;;19.97;70.81;99784.05;1758146;81;20904;-77
2021/09/02 10:23:48;;;;;;;8.40;7.75;;;;;;;19.96;70.87;99789.03;1758134;81;21625;-77
2021/09/02 10:26:34;;;;;;;7.80;7.00;;;;;;;19.97;71.43;99782.21;1757972;80;20928;-77
2021/09/02 10:29:04;;;;;;;8.35;7.55;;;;;;;19.99;71.06;99792.69;1758507;81;20952;-77
2021/09/02 10:31:31;;;;;;;7.58;6.92;;;;;;;19.99;71.18;99793.52;1758894;80;20886;-77
2021/09/02 10:33:58;;;;;;;8.18;7.33;;;;;;;20.01;70.46;99791.99;1758365;81;21002;-77
2021/09/02 10:36:30;;;;;;;11.03;7.33;;;;;;;20.05;70.53;99802.14;1758620;80;22144;-77
2021/09/02 10:38:57;;;;;;;8.43;7.62;;;;;;;20.09;70.23;99799.95;1725204;82;20888;-77
2021/09/02 10:41:44;;;;;;;10.63;6.50;;;;;;;20.12;70.06;99802.75;1724726;83;20924;-77
2021/09/02 10:44:15;;;;;;;7.75;6.78;;;;;;;20.11;70.07;99811.25;1724916;83;20912;-75
2021/09/02 10:46:47;;;;;;;7.25;6.65;;;;;;;20.01;69.56;99814.61;1724783;83;21485;-75
2021/09/02 10:49:29;;;;;;;6.53;6.03;;;;;;;19.89;68.98;99811.52;1724731;81;21975;-77
2021/09/02 10:52:13;;;;;;;7.72;6.87;;;;;;;19.77;68.94;99819.05;1724995;82;21383;-78
2021/09/02 10:54:52;;;;;;;6.37;5.80;;;;;;;19.65;69.19;99816.38;1717808;83;20998;-77
2021/09/02 10:57:19;;;;;;;8.43;6.25;;;;;;;19.52;68.89;99817.41;1724420;83;20947;-75
2021/09/02 10:59:53;;;;;;;7.22;6.53;;;;;;;19.41;69.13;99815.96;1725084;83;21484;-76
2021/09/02 11:02:28;;;;;;;7.00;5.72;;;;;;;19.32;69.34;99811.16;1724887;83;21155;-76
2021/09/02 11:05:01;;;;;;;8.68;6.12;;;;;;;19.23;69.32;99814.32;1723235;83;20999;-76
2021/09/02 11:07:56;;;;;;;5.45;4.97;;;;;;;19.17;69.44;99817.64;1716854;83;20959;-77
2021/09/02 11:10:22;;;;;;;9.20;4.87;;;;;;;19.14;69.10;99813.15;1710869;82;20920;-78
2021/09/02 11:13:04;;;;;;;4.50;4.10;;;;;;;19.10;68.70;99818.46;1716895;82;20986;-79
2021/09/02 11:15:35;;;;;;;4.85;3.60;;;;;;;19.08;68.50;99811.18;1717160;83;26980;-77
2021/09/02 11:18:05;;;;;;;4.47;4.08;;;;;;;19.08;68.24;99825.30;1716312;83;20889;-80
2021/09/02 11:20:34;;;;;;;4.90;4.53;;;;;;;19.07;68.37;99822.80;1716474;83;21425;-81
2021/09/02 11:23:14;;;;;;;4.75;4.37;;;;;;;19.07;68.90;99823.61;1716696;83;20943;-80
2021/09/02 11:25:50;;;;;;;4.97;3.85;;;;;;;19.10;68.67;99821.12;1716449;83;20975;-80
2021/09/02 11:28:21;;;;;;;3.20;3.00;;;;;;;19.12;68.64;99816.47;1716503;82;20939;-80
2021/09/02 11:30:50;;;;;;;4.40;3.55;;;;;;;19.17;68.66;99826.13;1716452;83;20939;-81
2021/09/02 11:33:17;;;;;;;3.75;3.12;;;;;;;19.19;69.08;99814.31;1716481;83;20905;-80
2021/09/02 11:35:58;;;;;;;4.47;2.92;;;;;;;19.22;68.13;99815.30;1716404;82;21501;-80